sensor_id;sensor_type;location;lat;lon;timestamp;temperature;humidity
3701;DHT22;1866;48.374;10.766;2023-02-01T00:00:07;3.10;1.00
3701;DHT22;1866;48.374;10.766;2023-02-01T00:02:35;3.00;1.00
3701;DHT22;1866;48.374;10.766;2023-02-01T00:05:06;3.00;1.00
3701;DHT22;1866;48.374;10.766;2023-02-01T00:07:41;3.00;1.00
3701;DHT22;1866;48.374;10.766;2023-02-01T00:10:09;3.00;1.00
3701;DHT22;1866;48.374;10.766;2023-02-01T00:12:36;2.90;1.00
3701;DHT22;1866;48.374;10.766;2023-02-01T00:15:04;2.90;1.00
3701;DHT22;1866;48.374;10.766;2023-02-01T00:17:31;2.90;1.00
3701;DHT22;1866;48.374;10.766;2023-02-01T00:19:58;2.80;1.00
3701;DHT22;1866;48.374;10.766;2023-02-01T00:22:25;2.80;1.00
3701;DHT22;1866;48.374;10.766;2023-02-01T00:24:53;2.80;1.00
3701;DHT22;1866;48.374;10.766;2023-02-01T00:27:20;2.70;1.00
3701;DHT22;1866;48.374;10.766;2023-02-01T00:29:48;2.70;1.00
3701;DHT22;1866;48.374;10.766;2023-02-01T00:32:15;2.60;1.00
3701;DHT22;1866;48.374;10.766;2023-02-01T00:34:42;2.60;1.00
3701;DHT22;1866;48.374;10.766;2023-02-01T00:37:09;2.60;1.00
3701;DHT22;1866;48.374;10.766;2023-02-01T00:39:36;2.60;1.00
3701;DHT22;1866;48.374;10.766;2023-02-01T00:42:05;2.60;1.00
3701;DHT22;1866;48.374;10.766;2023-02-01T00:44:34;2.60;1.00
3701;DHT22;1866;48.374;10.766;2023-02-01T00:47:01;2.60;1.00
3701;DHT22;1866;48.374;10.766;2023-02-01T00:49:28;2.70;1.00
3701;DHT22;1866;48.374;10.766;2023-02-01T00:51:55;2.60;1.00
3701;DHT22;1866;48.374;10.766;2023-02-01T00:54:22;2.60;1.00
3701;DHT22;1866;48.374;10.766;2023-02-01T00:56:50;2.60;1.00
3701;DHT22;1866;48.374;10.766;2023-02-01T00:59:19;2.70;1.00
3701;DHT22;1866;48.374;10.766;2023-02-01T01:01:47;2.60;1.00
3701;DHT22;1866;48.374;10.766;2023-02-01T01:04:14;2.60;1.00
3701;DHT22;1866;48.374;10.766;2023-02-01T01:06:47;2.60;1.00
3701;DHT22;1866;48.374;10.766;2023-02-01T01:09:14;2.60;1.00
3701;DHT22;1866;48.374;10.766;2023-02-01T01:11:41;2.60;1.00
3701;DHT22;1866;48.374;10.766;2023-02-01T01:14:09;2.60;1.00
3701;DHT22;1866;48.374;10.766;2023-02-01T01:16:38;2.50;1.00
3701;DHT22;1866;48.374;10.766;2023-02-01T01:19:05;2.50;1.00
3701;DHT22;1866;48.374;10.766;2023-02-01T01:21:32;2.60;1.00
3701;DHT22;1866;48.374;10.766;2023-02-01T01:24:00;2.60;1.00
3701;DHT22;1866;48.374;10.766;2023-02-01T01:26:29;2.60;1.00
3701;DHT22;1866;48.374;10.766;2023-02-01T01:28:57;2.60;1.00
3701;DHT22;1866;48.374;10.766;2023-02-01T01:31:25;2.60;1.00
3701;DHT22;1866;48.374;10.766;2023-02-01T01:33:55;2.50;1.00
3701;DHT22;1866;48.374;10.766;2023-02-01T01:36:23;2.60;1.00
3701;DHT22;1866;48.374;10.766;2023-02-01T01:38:51;2.60;1.00
3701;DHT22;1866;48.374;10.766;2023-02-01T01:41:20;2.60;1.00
3701;DHT22;1866;48.374;10.766;2023-02-01T01:43:58;2.50;1.00
3701;DHT22;1866;48.374;10.766;2023-02-01T01:46:28;2.50;1.00
3701;DHT22;1866;48.374;10.766;2023-02-01T01:49:04;2.50;1.00
3701;DHT22;1866;48.374;10.766;2023-02-01T01:51:36;2.50;1.00
3701;DHT22;1866;48.374;10.766;2023-02-01T01:54:09;2.50;1.00
3701;DHT22;1866;48.374;10.766;2023-02-01T01:56:38;2.60;1.00
3701;DHT22;1866;48.374;10.766;2023-02-01T01:59:07;2.60;1.00
3701;DHT22;1866;48.374;10.766;2023-02-01T02:01:41;2.60;1.00
3701;DHT22;1866;48.374;10.766;2023-02-01T02:04:10;2.50;1.00
3701;DHT22;1866;48.374;10.766;2023-02-01T02:06:41;2.50;1.00
3701;DHT22;1866;48.374;10.766;2023-02-01T02:09:11;2.60;1.00
3701;DHT22;1866;48.374;10.766;2023-02-01T02:11:39;2.60;1.00
3701;DHT22;1866;48.374;10.766;2023-02-01T02:14:08;2.60;1.00
3701;DHT22;1866;48.374;10.766;2023-02-01T02:16:46;2.50;1.00
3701;DHT22;1866;48.374;10.766;2023-02-01T02:19:56;2.50;1.00
3701;DHT22;1866;48.374;10.766;2023-02-01T02:22:49;2.60;1.00
3701;DHT22;1866;48.374;10.766;2023-02-01T02:25:55;2.60;1.00
3701;DHT22;1866;48.374;10.766;2023-02-01T02:28:52;2.50;1.00
3701;DHT22;1866;48.374;10.766;2023-02-01T02:34:34;2.50;1.00
3701;DHT22;1866;48.374;10.766;2023-02-01T02:37:11;2.50;1.00
3701;DHT22;1866;48.374;10.766;2023-02-01T02:39:48;2.50;1.00
3701;DHT22;1866;48.374;10.766;2023-02-01T02:42:25;2.50;1.00
3701;DHT22;1866;48.374;10.766;2023-02-01T02:45:17;2.50;1.00
3701;DHT22;1866;48.374;10.766;2023-02-01T02:48:07;2.50;1.00
3701;DHT22;1866;48.374;10.766;2023-02-01T02:50:41;2.50;1.00
3701;DHT22;1866;48.374;10.766;2023-02-01T02:53:33;2.50;1.00
3701;DHT22;1866;48.374;10.766;2023-02-01T02:56:21;2.50;1.00
3701;DHT22;1866;48.374;10.766;2023-02-01T02:59:18;2.50;1.00
3701;DHT22;1866;48.374;10.766;2023-02-01T03:02:07;2.40;1.00
3701;DHT22;1866;48.374;10.766;2023-02-01T03:05:00;2.50;1.00
3701;DHT22;1866;48.374;10.766;2023-02-01T03:07:57;2.50;1.00
3701;DHT22;1866;48.374;10.766;2023-02-01T03:10:30;2.60;1.00
3701;DHT22;1866;48.374;10.766;2023-02-01T03:13:02;2.50;1.00
3701;DHT22;1866;48.374;10.766;2023-02-01T03:15:36;2.50;1.00
3701;DHT22;1866;48.374;10.766;2023-02-01T03:18:06;2.60;1.00
3701;DHT22;1866;48.374;10.766;2023-02-01T03:20:39;2.50;1.00
3701;DHT22;1866;48.374;10.766;2023-02-01T03:23:10;2.50;1.00
3701;DHT22;1866;48.374;10.766;2023-02-01T03:25:40;2.60;1.00
3701;DHT22;1866;48.374;10.766;2023-02-01T03:28:10;2.60;1.00
3701;DHT22;1866;48.374;10.766;2023-02-01T03:30:39;2.60;1.00
3701;DHT22;1866;48.374;10.766;2023-02-01T03:33:11;2.60;1.00
3701;DHT22;1866;48.374;10.766;2023-02-01T03:35:54;2.50;1.00
3701;DHT22;1866;48.374;10.766;2023-02-01T03:38:27;2.60;1.00
3701;DHT22;1866;48.374;10.766;2023-02-01T03:41:00;2.60;1.00
3701;DHT22;1866;48.374;10.766;2023-02-01T03:43:32;2.60;1.00
3701;DHT22;1866;48.374;10.766;2023-02-01T03:46:03;2.60;1.00
3701;DHT22;1866;48.374;10.766;2023-02-01T03:48:32;2.50;1.00
3701;DHT22;1866;48.374;10.766;2023-02-01T03:51:03;2.60;1.00
3701;DHT22;1866;48.374;10.766;2023-02-01T03:53:33;2.60;1.00
3701;DHT22;1866;48.374;10.766;2023-02-01T03:56:03;2.60;1.00
3701;DHT22;1866;48.374;10.766;2023-02-01T03:58:30;2.70;1.00
3701;DHT22;1866;48.374;10.766;2023-02-01T04:01:07;2.60;1.00
3701;DHT22;1866;48.374;10.766;2023-02-01T04:03:34;2.70;1.00
3701;DHT22;1866;48.374;10.766;2023-02-01T04:06:02;2.80;1.00
3701;DHT22;1866;48.374;10.766;2023-02-01T04:08:40;2.70;1.00
3701;DHT22;1866;48.374;10.766;2023-02-01T04:11:08;2.70;1.00
3701;DHT22;1866;48.374;10.766;2023-02-01T04:13:37;2.70;1.00
3701;DHT22;1866;48.374;10.766;2023-02-01T04:16:04;2.70;1.00
3701;DHT22;1866;48.374;10.766;2023-02-01T04:18:32;2.70;1.00
3701;DHT22;1866;48.374;10.766;2023-02-01T04:21:05;2.70;1.00
3701;DHT22;1866;48.374;10.766;2023-02-01T04:23:32;2.80;1.00
3701;DHT22;1866;48.374;10.766;2023-02-01T04:26:02;2.70;1.00
3701;DHT22;1866;48.374;10.766;2023-02-01T04:28:29;2.70;1.00
3701;DHT22;1866;48.374;10.766;2023-02-01T04:30:59;2.70;1.00
3701;DHT22;1866;48.374;10.766;2023-02-01T04:33:26;2.70;1.00
3701;DHT22;1866;48.374;10.766;2023-02-01T04:35:56;2.80;1.00
3701;DHT22;1866;48.374;10.766;2023-02-01T04:38:24;2.80;1.00
3701;DHT22;1866;48.374;10.766;2023-02-01T04:40:52;2.80;1.00
3701;DHT22;1866;48.374;10.766;2023-02-01T04:43:21;2.80;1.00
3701;DHT22;1866;48.374;10.766;2023-02-01T04:45:48;2.80;1.00
3701;DHT22;1866;48.374;10.766;2023-02-01T04:48:16;2.80;1.00
3701;DHT22;1866;48.374;10.766;2023-02-01T04:50:46;2.80;1.00
3701;DHT22;1866;48.374;10.766;2023-02-01T04:53:13;2.80;1.00
3701;DHT22;1866;48.374;10.766;2023-02-01T04:55:41;2.80;1.00
3701;DHT22;1866;48.374;10.766;2023-02-01T04:58:08;2.70;1.00
3701;DHT22;1866;48.374;10.766;2023-02-01T05:00:36;2.80;1.00
3701;DHT22;1866;48.374;10.766;2023-02-01T05:03:09;2.70;1.00
3701;DHT22;1866;48.374;10.766;2023-02-01T05:05:36;2.70;1.00
3701;DHT22;1866;48.374;10.766;2023-02-01T05:08:05;2.70;1.00
3701;DHT22;1866;48.374;10.766;2023-02-01T05:10:33;2.70;1.00
3701;DHT22;1866;48.374;10.766;2023-02-01T05:13:02;2.70;1.00
3701;DHT22;1866;48.374;10.766;2023-02-01T05:15:48;2.70;1.00
3701;DHT22;1866;48.374;10.766;2023-02-01T05:18:17;2.70;1.00
3701;DHT22;1866;48.374;10.766;2023-02-01T05:20:44;2.70;1.00
3701;DHT22;1866;48.374;10.766;2023-02-01T05:23:12;2.70;1.00
3701;DHT22;1866;48.374;10.766;2023-02-01T05:25:39;2.70;1.00
3701;DHT22;1866;48.374;10.766;2023-02-01T05:28:06;2.70;1.00
3701;DHT22;1866;48.374;10.766;2023-02-01T05:30:34;2.70;1.00
3701;DHT22;1866;48.374;10.766;2023-02-01T05:33:03;2.80;1.00
3701;DHT22;1866;48.374;10.766;2023-02-01T05:35:33;2.80;1.00
3701;DHT22;1866;48.374;10.766;2023-02-01T05:38:00;2.90;1.00
3701;DHT22;1866;48.374;10.766;2023-02-01T05:40:27;2.90;1.00
3701;DHT22;1866;48.374;10.766;2023-02-01T05:42:54;2.90;1.00
3701;DHT22;1866;48.374;10.766;2023-02-01T05:45:21;2.90;1.00
3701;DHT22;1866;48.374;10.766;2023-02-01T05:47:48;2.90;1.00
3701;DHT22;1866;48.374;10.766;2023-02-01T05:50:17;2.80;1.00
3701;DHT22;1866;48.374;10.766;2023-02-01T05:52:52;2.90;1.00
3701;DHT22;1866;48.374;10.766;2023-02-01T05:55:21;2.90;1.00
3701;DHT22;1866;48.374;10.766;2023-02-01T05:57:53;2.90;1.00
3701;DHT22;1866;48.374;10.766;2023-02-01T06:00:43;2.90;1.00
3701;DHT22;1866;48.374;10.766;2023-02-01T06:03:13;2.90;1.00
3701;DHT22;1866;48.374;10.766;2023-02-01T06:06:03;2.90;1.00
3701;DHT22;1866;48.374;10.766;2023-02-01T06:08:36;3.00;1.00
3701;DHT22;1866;48.374;10.766;2023-02-01T06:11:11;2.90;1.00
3701;DHT22;1866;48.374;10.766;2023-02-01T06:13:47;3.00;1.00
3701;DHT22;1866;48.374;10.766;2023-02-01T06:16:18;2.90;1.00
3701;DHT22;1866;48.374;10.766;2023-02-01T06:18:47;2.90;1.00
3701;DHT22;1866;48.374;10.766;2023-02-01T06:21:21;3.00;1.00
3701;DHT22;1866;48.374;10.766;2023-02-01T06:23:51;3.00;1.00
3701;DHT22;1866;48.374;10.766;2023-02-01T06:26:25;3.10;1.00
3701;DHT22;1866;48.374;10.766;2023-02-01T06:28:55;3.00;1.00
3701;DHT22;1866;48.374;10.766;2023-02-01T06:31:22;3.10;1.00
3701;DHT22;1866;48.374;10.766;2023-02-01T06:33:51;3.10;1.00
3701;DHT22;1866;48.374;10.766;2023-02-01T06:36:23;3.00;1.00
3701;DHT22;1866;48.374;10.766;2023-02-01T06:38:57;3.00;1.00
3701;DHT22;1866;48.374;10.766;2023-02-01T06:41:27;3.10;1.00
3701;DHT22;1866;48.374;10.766;2023-02-01T06:43:57;3.00;1.00
3701;DHT22;1866;48.374;10.766;2023-02-01T06:46:24;3.10;1.00
3701;DHT22;1866;48.374;10.766;2023-02-01T06:48:51;3.10;1.00
3701;DHT22;1866;48.374;10.766;2023-02-01T06:51:34;3.20;1.00
3701;DHT22;1866;48.374;10.766;2023-02-01T06:54:01;3.10;1.00
3701;DHT22;1866;48.374;10.766;2023-02-01T06:56:28;3.10;1.00
3701;DHT22;1866;48.374;10.766;2023-02-01T06:58:57;3.20;1.00
3701;DHT22;1866;48.374;10.766;2023-02-01T07:01:26;3.20;1.00
3701;DHT22;1866;48.374;10.766;2023-02-01T07:03:55;3.20;1.00
3701;DHT22;1866;48.374;10.766;2023-02-01T07:06:48;3.20;1.00
3701;DHT22;1866;48.374;10.766;2023-02-01T07:09:15;3.30;1.00
3701;DHT22;1866;48.374;10.766;2023-02-01T07:11:47;3.30;1.00
3701;DHT22;1866;48.374;10.766;2023-02-01T07:14:15;3.30;1.00
3701;DHT22;1866;48.374;10.766;2023-02-01T07:16:51;3.20;1.00
3701;DHT22;1866;48.374;10.766;2023-02-01T07:19:18;3.20;1.00
3701;DHT22;1866;48.374;10.766;2023-02-01T07:21:45;3.20;1.00
3701;DHT22;1866;48.374;10.766;2023-02-01T07:24:14;3.30;1.00
3701;DHT22;1866;48.374;10.766;2023-02-01T07:26:46;3.30;1.00
3701;DHT22;1866;48.374;10.766;2023-02-01T07:29:21;3.30;1.00
3701;DHT22;1866;48.374;10.766;2023-02-01T07:31:48;3.40;1.00
3701;DHT22;1866;48.374;10.766;2023-02-01T07:34:18;3.50;1.00
3701;DHT22;1866;48.374;10.766;2023-02-01T07:36:54;3.50;1.00
3701;DHT22;1866;48.374;10.766;2023-02-01T07:39:27;3.50;1.00
3701;DHT22;1866;48.374;10.766;2023-02-01T07:41:57;3.50;1.00
3701;DHT22;1866;48.374;10.766;2023-02-01T07:44:24;3.50;1.00
3701;DHT22;1866;48.374;10.766;2023-02-01T07:46:52;3.60;1.00
3701;DHT22;1866;48.374;10.766;2023-02-01T07:49:20;3.50;1.00
3701;DHT22;1866;48.374;10.766;2023-02-01T07:51:50;3.60;1.00
3701;DHT22;1866;48.374;10.766;2023-02-01T07:54:30;3.60;1.00
3701;DHT22;1866;48.374;10.766;2023-02-01T07:57:01;3.70;1.00
3701;DHT22;1866;48.374;10.766;2023-02-01T07:59:38;3.70;1.00
3701;DHT22;1866;48.374;10.766;2023-02-01T08:02:25;3.70;1.00
3701;DHT22;1866;48.374;10.766;2023-02-01T08:04:58;3.70;1.00
3701;DHT22;1866;48.374;10.766;2023-02-01T08:07:27;3.70;1.00
3701;DHT22;1866;48.374;10.766;2023-02-01T08:09:57;3.70;1.00
3701;DHT22;1866;48.374;10.766;2023-02-01T08:12:25;3.70;1.00
3701;DHT22;1866;48.374;10.766;2023-02-01T08:14:53;3.70;1.00
3701;DHT22;1866;48.374;10.766;2023-02-01T08:17:23;3.70;1.00
3701;DHT22;1866;48.374;10.766;2023-02-01T08:19:51;3.80;1.00
3701;DHT22;1866;48.374;10.766;2023-02-01T08:22:18;3.80;1.00
3701;DHT22;1866;48.374;10.766;2023-02-01T08:24:47;3.80;1.00
3701;DHT22;1866;48.374;10.766;2023-02-01T08:27:22;3.80;1.00
3701;DHT22;1866;48.374;10.766;2023-02-01T08:29:49;3.90;1.00
3701;DHT22;1866;48.374;10.766;2023-02-01T08:32:16;4.00;1.00
3701;DHT22;1866;48.374;10.766;2023-02-01T08:37:44;4.00;1.00
3701;DHT22;1866;48.374;10.766;2023-02-01T08:40:11;4.00;1.00
3701;DHT22;1866;48.374;10.766;2023-02-01T08:42:59;4.00;1.00
3701;DHT22;1866;48.374;10.766;2023-02-01T08:45:28;4.00;1.00
3701;DHT22;1866;48.374;10.766;2023-02-01T08:48:05;4.00;1.00
3701;DHT22;1866;48.374;10.766;2023-02-01T08:50:32;4.00;1.00
3701;DHT22;1866;48.374;10.766;2023-02-01T08:53:03;4.10;1.00
3701;DHT22;1866;48.374;10.766;2023-02-01T08:55:33;4.10;1.00
3701;DHT22;1866;48.374;10.766;2023-02-01T08:58:02;4.10;1.00
3701;DHT22;1866;48.374;10.766;2023-02-01T09:00:31;4.20;1.00
3701;DHT22;1866;48.374;10.766;2023-02-01T09:03:00;4.20;1.00
3701;DHT22;1866;48.374;10.766;2023-02-01T09:05:27;4.20;1.00
3701;DHT22;1866;48.374;10.766;2023-02-01T09:07:55;4.20;1.00
3701;DHT22;1866;48.374;10.766;2023-02-01T09:10:21;4.20;1.00
3701;DHT22;1866;48.374;10.766;2023-02-01T09:12:50;4.30;1.00
3701;DHT22;1866;48.374;10.766;2023-02-01T09:15:23;4.20;1.00
3701;DHT22;1866;48.374;10.766;2023-02-01T09:17:50;4.30;1.00
3701;DHT22;1866;48.374;10.766;2023-02-01T09:20:20;4.30;1.00
3701;DHT22;1866;48.374;10.766;2023-02-01T09:22:50;4.30;1.00
3701;DHT22;1866;48.374;10.766;2023-02-01T09:25:17;4.40;1.00
3701;DHT22;1866;48.374;10.766;2023-02-01T09:27:44;4.40;1.00
3701;DHT22;1866;48.374;10.766;2023-02-01T09:30:13;4.40;1.00
3701;DHT22;1866;48.374;10.766;2023-02-01T09:32:42;4.40;1.00
3701;DHT22;1866;48.374;10.766;2023-02-01T09:35:22;4.40;1.00
3701;DHT22;1866;48.374;10.766;2023-02-01T09:37:50;4.40;1.00
3701;DHT22;1866;48.374;10.766;2023-02-01T09:40:28;4.40;1.00
3701;DHT22;1866;48.374;10.766;2023-02-01T09:43:16;4.40;1.00
3701;DHT22;1866;48.374;10.766;2023-02-01T09:45:51;4.40;1.00
3701;DHT22;1866;48.374;10.766;2023-02-01T09:48:29;4.40;1.00
3701;DHT22;1866;48.374;10.766;2023-02-01T09:51:14;4.40;1.00
3701;DHT22;1866;48.374;10.766;2023-02-01T09:54:01;4.40;1.00
3701;DHT22;1866;48.374;10.766;2023-02-01T09:56:34;4.40;1.00
3701;DHT22;1866;48.374;10.766;2023-02-01T09:59:09;4.50;1.00
3701;DHT22;1866;48.374;10.766;2023-02-01T10:01:47;4.40;1.00
3701;DHT22;1866;48.374;10.766;2023-02-01T10:04:22;4.50;1.00
3701;DHT22;1866;48.374;10.766;2023-02-01T10:07:01;4.50;1.00
3701;DHT22;1866;48.374;10.766;2023-02-01T10:09:44;4.50;1.00
3701;DHT22;1866;48.374;10.766;2023-02-01T10:12:35;4.50;1.00
3701;DHT22;1866;48.374;10.766;2023-02-01T10:15:28;4.50;1.00
3701;DHT22;1866;48.374;10.766;2023-02-01T10:18:10;4.50;1.00
3701;DHT22;1866;48.374;10.766;2023-02-01T10:20:50;4.50;1.00
3701;DHT22;1866;48.374;10.766;2023-02-01T10:23:31;4.50;1.00
3701;DHT22;1866;48.374;10.766;2023-02-01T10:26:15;4.40;1.00
3701;DHT22;1866;48.374;10.766;2023-02-01T10:28:49;4.40;1.00
3701;DHT22;1866;48.374;10.766;2023-02-01T10:31:40;4.50;1.00
3701;DHT22;1866;48.374;10.766;2023-02-01T10:34:14;4.40;1.00
3701;DHT22;1866;48.374;10.766;2023-02-01T10:36:52;4.50;1.00
3701;DHT22;1866;48.374;10.766;2023-02-01T10:39:20;4.40;1.00
3701;DHT22;1866;48.374;10.766;2023-02-01T10:41:49;4.40;1.00
3701;DHT22;1866;48.374;10.766;2023-02-01T10:44:20;4.50;1.00
3701;DHT22;1866;48.374;10.766;2023-02-01T10:46:54;4.50;1.00
3701;DHT22;1866;48.374;10.766;2023-02-01T10:49:26;4.50;1.00
3701;DHT22;1866;48.374;10.766;2023-02-01T10:52:07;4.50;1.00
3701;DHT22;1866;48.374;10.766;2023-02-01T10:54:40;4.50;1.00
3701;DHT22;1866;48.374;10.766;2023-02-01T10:57:20;4.50;1.00
3701;DHT22;1866;48.374;10.766;2023-02-01T10:59:47;4.50;1.00
3701;DHT22;1866;48.374;10.766;2023-02-01T11:02:27;4.50;1.00
3701;DHT22;1866;48.374;10.766;2023-02-01T11:05:00;4.60;1.00
3701;DHT22;1866;48.374;10.766;2023-02-01T11:07:50;4.50;1.00
3701;DHT22;1866;48.374;10.766;2023-02-01T11:13:03;4.50;1.00
3701;DHT22;1866;48.374;10.766;2023-02-01T11:15:47;4.50;1.00
3701;DHT22;1866;48.374;10.766;2023-02-01T11:18:28;4.40;1.00
3701;DHT22;1866;48.374;10.766;2023-02-01T11:20:57;4.40;1.00
3701;DHT22;1866;48.374;10.766;2023-02-01T11:23:31;4.40;1.00
3701;DHT22;1866;48.374;10.766;2023-02-01T11:26:01;4.40;1.00
3701;DHT22;1866;48.374;10.766;2023-02-01T11:28:37;4.40;1.00
3701;DHT22;1866;48.374;10.766;2023-02-01T11:31:08;4.40;1.00
3701;DHT22;1866;48.374;10.766;2023-02-01T11:33:39;4.40;1.00
3701;DHT22;1866;48.374;10.766;2023-02-01T11:36:13;4.40;1.00
3701;DHT22;1866;48.374;10.766;2023-02-01T11:38:46;4.40;1.00
3701;DHT22;1866;48.374;10.766;2023-02-01T11:41:22;4.30;1.00
3701;DHT22;1866;48.374;10.766;2023-02-01T11:43:56;4.40;1.00
3701;DHT22;1866;48.374;10.766;2023-02-01T11:46:33;4.40;1.00
3701;DHT22;1866;48.374;10.766;2023-02-01T11:49:20;4.40;1.00
3701;DHT22;1866;48.374;10.766;2023-02-01T11:52:00;4.30;1.00
3701;DHT22;1866;48.374;10.766;2023-02-01T11:54:49;4.30;1.00
3701;DHT22;1866;48.374;10.766;2023-02-01T11:57:34;4.30;1.00
3701;DHT22;1866;48.374;10.766;2023-02-01T12:06:18;4.30;1.00
3701;DHT22;1866;48.374;10.766;2023-02-01T12:09:25;4.30;1.00
3701;DHT22;1866;48.374;10.766;2023-02-01T12:12:01;4.30;1.00
3701;DHT22;1866;48.374;10.766;2023-02-01T12:14:43;4.40;1.00
3701;DHT22;1866;48.374;10.766;2023-02-01T12:17:41;4.40;1.00
3701;DHT22;1866;48.374;10.766;2023-02-01T12:20:47;4.40;1.00
3701;DHT22;1866;48.374;10.766;2023-02-01T12:23:36;4.40;1.00
3701;DHT22;1866;48.374;10.766;2023-02-01T12:26:35;4.40;1.00
3701;DHT22;1866;48.374;10.766;2023-02-01T12:29:16;4.50;1.00
3701;DHT22;1866;48.374;10.766;2023-02-01T12:32:09;4.50;1.00
3701;DHT22;1866;48.374;10.766;2023-02-01T12:37:59;4.60;1.00
3701;DHT22;1866;48.374;10.766;2023-02-01T12:40:53;4.60;1.00
3701;DHT22;1866;48.374;10.766;2023-02-01T12:43:33;4.70;1.00
3701;DHT22;1866;48.374;10.766;2023-02-01T12:46:10;4.70;1.00
3701;DHT22;1866;48.374;10.766;2023-02-01T12:48:41;4.70;1.00
3701;DHT22;1866;48.374;10.766;2023-02-01T12:51:12;4.70;1.00
3701;DHT22;1866;48.374;10.766;2023-02-01T12:54:00;4.70;1.00
3701;DHT22;1866;48.374;10.766;2023-02-01T12:56:34;4.70;1.00
3701;DHT22;1866;48.374;10.766;2023-02-01T12:59:10;4.70;1.00
3701;DHT22;1866;48.374;10.766;2023-02-01T13:01:48;4.60;1.00
3701;DHT22;1866;48.374;10.766;2023-02-01T13:04:23;4.60;1.00
3701;DHT22;1866;48.374;10.766;2023-02-01T13:06:54;4.60;1.00
3701;DHT22;1866;48.374;10.766;2023-02-01T13:09:26;4.60;1.00
3701;DHT22;1866;48.374;10.766;2023-02-01T13:11:59;4.70;1.00
3701;DHT22;1866;48.374;10.766;2023-02-01T13:14:33;4.70;1.00
3701;DHT22;1866;48.374;10.766;2023-02-01T13:17:06;4.60;1.00
3701;DHT22;1866;48.374;10.766;2023-02-01T13:19:43;4.60;1.00
3701;DHT22;1866;48.374;10.766;2023-02-01T13:22:16;4.70;1.00
3701;DHT22;1866;48.374;10.766;2023-02-01T13:24:47;4.70;1.00
3701;DHT22;1866;48.374;10.766;2023-02-01T13:27:17;4.70;1.00
3701;DHT22;1866;48.374;10.766;2023-02-01T13:29:59;4.70;1.00
3701;DHT22;1866;48.374;10.766;2023-02-01T13:32:56;4.80;1.00
3701;DHT22;1866;48.374;10.766;2023-02-01T13:38:54;4.70;1.00
3701;DHT22;1866;48.374;10.766;2023-02-01T13:41:42;4.70;1.00
3701;DHT22;1866;48.374;10.766;2023-02-01T13:44:23;4.60;1.00
3701;DHT22;1866;48.374;10.766;2023-02-01T13:46:57;4.50;1.00
3701;DHT22;1866;48.374;10.766;2023-02-01T13:49:30;4.50;1.00
3701;DHT22;1866;48.374;10.766;2023-02-01T13:51:58;4.40;1.00
3701;DHT22;1866;48.374;10.766;2023-02-01T13:54:36;4.30;1.00
3701;DHT22;1866;48.374;10.766;2023-02-01T13:57:06;4.30;1.00
3701;DHT22;1866;48.374;10.766;2023-02-01T14:00:05;4.20;1.00
3701;DHT22;1866;48.374;10.766;2023-02-01T14:03:11;4.20;1.00
3701;DHT22;1866;48.374;10.766;2023-02-01T14:06:18;4.20;1.00
3701;DHT22;1866;48.374;10.766;2023-02-01T14:09:31;4.10;1.00
3701;DHT22;1866;48.374;10.766;2023-02-01T14:15:22;4.10;1.00
3701;DHT22;1866;48.374;10.766;2023-02-01T14:17:51;4.10;1.00
3701;DHT22;1866;48.374;10.766;2023-02-01T14:20:46;4.20;1.00
3701;DHT22;1866;48.374;10.766;2023-02-01T14:23:28;4.20;1.00
3701;DHT22;1866;48.374;10.766;2023-02-01T14:26:16;4.20;1.00
3701;DHT22;1866;48.374;10.766;2023-02-01T14:29:00;4.10;1.00
3701;DHT22;1866;48.374;10.766;2023-02-01T14:31:40;4.10;1.00
3701;DHT22;1866;48.374;10.766;2023-02-01T14:34:16;4.10;1.00
3701;DHT22;1866;48.374;10.766;2023-02-01T14:36:46;4.10;1.00
3701;DHT22;1866;48.374;10.766;2023-02-01T14:39:31;4.20;1.00
3701;DHT22;1866;48.374;10.766;2023-02-01T14:42:02;4.30;1.00
3701;DHT22;1866;48.374;10.766;2023-02-01T14:44:32;4.30;1.00
3701;DHT22;1866;48.374;10.766;2023-02-01T14:50:25;4.30;1.00
3701;DHT22;1866;48.374;10.766;2023-02-01T14:53:16;4.40;1.00
3701;DHT22;1866;48.374;10.766;2023-02-01T14:55:48;4.40;1.00
3701;DHT22;1866;48.374;10.766;2023-02-01T14:58:35;4.50;1.00
3701;DHT22;1866;48.374;10.766;2023-02-01T15:01:21;4.50;1.00
3701;DHT22;1866;48.374;10.766;2023-02-01T15:03:54;4.60;1.00
3701;DHT22;1866;48.374;10.766;2023-02-01T15:06:37;4.70;1.00
3701;DHT22;1866;48.374;10.766;2023-02-01T15:09:09;4.60;1.00
3701;DHT22;1866;48.374;10.766;2023-02-01T15:12:03;4.60;1.00
3701;DHT22;1866;48.374;10.766;2023-02-01T15:14:33;4.60;1.00
3701;DHT22;1866;48.374;10.766;2023-02-01T15:17:00;4.70;1.00
3701;DHT22;1866;48.374;10.766;2023-02-01T15:19:29;4.70;1.00
3701;DHT22;1866;48.374;10.766;2023-02-01T15:21:58;4.60;1.00
3701;DHT22;1866;48.374;10.766;2023-02-01T15:24:27;4.70;1.00
3701;DHT22;1866;48.374;10.766;2023-02-01T15:27:02;4.70;1.00
3701;DHT22;1866;48.374;10.766;2023-02-01T15:29:30;4.70;1.00
3701;DHT22;1866;48.374;10.766;2023-02-01T15:31:58;4.70;1.00
3701;DHT22;1866;48.374;10.766;2023-02-01T15:34:44;4.60;1.00
3701;DHT22;1866;48.374;10.766;2023-02-01T15:37:12;4.60;1.00
3701;DHT22;1866;48.374;10.766;2023-02-01T15:40:02;4.60;1.00
3701;DHT22;1866;48.374;10.766;2023-02-01T15:42:29;4.60;1.00
3701;DHT22;1866;48.374;10.766;2023-02-01T15:45:00;4.60;1.00
3701;DHT22;1866;48.374;10.766;2023-02-01T15:47:30;4.50;1.00
3701;DHT22;1866;48.374;10.766;2023-02-01T15:50:04;4.60;1.00
3701;DHT22;1866;48.374;10.766;2023-02-01T15:52:35;4.60;1.00
3701;DHT22;1866;48.374;10.766;2023-02-01T15:55:07;4.50;1.00
3701;DHT22;1866;48.374;10.766;2023-02-01T15:57:39;4.50;1.00
3701;DHT22;1866;48.374;10.766;2023-02-01T16:00:22;4.50;1.00
3701;DHT22;1866;48.374;10.766;2023-02-01T16:02:52;4.50;1.00
3701;DHT22;1866;48.374;10.766;2023-02-01T16:05:32;4.40;1.00
3701;DHT22;1866;48.374;10.766;2023-02-01T16:08:02;4.40;1.00
3701;DHT22;1866;48.374;10.766;2023-02-01T16:10:31;4.40;1.00
3701;DHT22;1866;48.374;10.766;2023-02-01T16:12:58;4.40;1.00
3701;DHT22;1866;48.374;10.766;2023-02-01T16:15:27;4.40;1.00
3701;DHT22;1866;48.374;10.766;2023-02-01T16:17:57;4.40;1.00
3701;DHT22;1866;48.374;10.766;2023-02-01T16:20:27;4.40;1.00
3701;DHT22;1866;48.374;10.766;2023-02-01T16:22:55;4.30;1.00
3701;DHT22;1866;48.374;10.766;2023-02-01T16:25:42;4.30;1.00
3701;DHT22;1866;48.374;10.766;2023-02-01T16:28:10;4.30;1.00
3701;DHT22;1866;48.374;10.766;2023-02-01T16:30:38;4.30;1.00
3701;DHT22;1866;48.374;10.766;2023-02-01T16:33:09;4.30;1.00
3701;DHT22;1866;48.374;10.766;2023-02-01T16:35:38;4.30;1.00
3701;DHT22;1866;48.374;10.766;2023-02-01T16:38:12;4.30;1.00
3701;DHT22;1866;48.374;10.766;2023-02-01T16:40:42;4.30;1.00
3701;DHT22;1866;48.374;10.766;2023-02-01T16:43:19;4.30;1.00
3701;DHT22;1866;48.374;10.766;2023-02-01T16:46:00;4.30;1.00
3701;DHT22;1866;48.374;10.766;2023-02-01T16:48:50;4.30;1.00
3701;DHT22;1866;48.374;10.766;2023-02-01T16:51:25;4.30;1.00
3701;DHT22;1866;48.374;10.766;2023-02-01T16:53:53;4.30;1.00
3701;DHT22;1866;48.374;10.766;2023-02-01T16:56:23;4.30;1.00
3701;DHT22;1866;48.374;10.766;2023-02-01T16:58:50;4.40;1.00
3701;DHT22;1866;48.374;10.766;2023-02-01T17:01:21;4.30;1.00
3701;DHT22;1866;48.374;10.766;2023-02-01T17:03:55;4.30;1.00
3701;DHT22;1866;48.374;10.766;2023-02-01T17:06:23;4.30;1.00
3701;DHT22;1866;48.374;10.766;2023-02-01T17:08:56;4.30;1.00
3701;DHT22;1866;48.374;10.766;2023-02-01T17:11:24;4.20;1.00
3701;DHT22;1866;48.374;10.766;2023-02-01T17:13:53;4.30;1.00
3701;DHT22;1866;48.374;10.766;2023-02-01T17:16:40;4.30;1.00
3701;DHT22;1866;48.374;10.766;2023-02-01T17:19:11;4.30;1.00
3701;DHT22;1866;48.374;10.766;2023-02-01T17:22:07;4.30;1.00
3701;DHT22;1866;48.374;10.766;2023-02-01T17:24:35;4.40;1.00
3701;DHT22;1866;48.374;10.766;2023-02-01T17:27:02;4.40;1.00
3701;DHT22;1866;48.374;10.766;2023-02-01T17:29:39;4.40;1.00